TAF and METAR

Could not understand the following METAR

YOLD 020200Z AUTO 11015KT 100V160 9999 // NCD 22/01 Q1022

TAF for Olympic Dam Airport

TAF YOLD 020127Z 0202/0214 14014KT CAVOK FM021100 11007KT CAVOK
Report created 2. des 02:27

between 2. des 03:00 - 2. des 15:00

wind 14 knots from SE (140°) Clear sky

From 2. des 12:00

wind 7 knots from ESE (110°) Clear sky
Olympic Dam Airport in Australia at 105m

Latest 5 airports